createdAt,value
2018-10-19T00:00:37.060Z,23.50
2018-10-19T00:03:06.056Z,23.90
2018-10-19T00:05:34.890Z,24.00
2018-10-19T00:08:03.726Z,24.20
2018-10-19T00:10:32.569Z,24.20
2018-10-19T00:13:01.391Z,24.40
2018-10-19T00:15:30.249Z,24.70
2018-10-19T00:17:59.427Z,24.70
2018-10-19T00:20:28.261Z,24.80
2018-10-19T00:22:57.123Z,25.00
2018-10-19T00:25:25.928Z,25.30
2018-10-19T00:27:54.791Z,25.60
2018-10-19T00:30:23.639Z,25.50
2018-10-19T00:32:52.473Z,25.70
2018-10-19T00:35:21.289Z,25.80
2018-10-19T00:37:50.111Z,26.00
2018-10-19T00:40:18.958Z,26.10
2018-10-19T00:42:47.798Z,25.90
2018-10-19T00:45:17.531Z,26.20
2018-10-19T00:47:46.374Z,26.50
2018-10-19T00:50:15.186Z,26.70
2018-10-19T00:52:44.039Z,27.10
2018-10-19T00:55:12.862Z,27.30
2018-10-19T00:57:41.689Z,27.50
2018-10-19T01:00:10.574Z,27.70
2018-10-19T01:02:39.385Z,27.90
2018-10-19T01:05:08.283Z,28.60
2018-10-19T01:07:37.046Z,28.80
2018-10-19T01:10:05.968Z,29.80
2018-10-19T01:12:34.914Z,28.70
2018-10-19T01:15:03.807Z,28.50
2018-10-19T01:17:32.575Z,28.70
2018-10-19T01:20:01.402Z,28.70
2018-10-19T01:22:30.251Z,28.90
2018-10-19T01:24:59.242Z,28.50
2018-10-19T01:27:28.099Z,28.70
2018-10-19T01:29:56.946Z,28.80
2018-10-19T01:32:25.782Z,29.00
2018-10-19T01:34:54.626Z,28.90
2018-10-19T01:37:23.510Z,28.80
2018-10-19T01:39:52.322Z,28.80
2018-10-19T01:42:21.159Z,28.90
2018-10-19T01:44:49.981Z,28.80
2018-10-19T01:47:18.818Z,28.90
2018-10-19T01:49:47.710Z,28.90
2018-10-19T01:52:16.546Z,28.90
2018-10-19T01:54:45.403Z,29.20
2018-10-19T01:57:14.258Z,29.20
2018-10-19T01:59:43.065Z,30.50
2018-10-19T02:02:12.073Z,29.30
2018-10-19T02:04:40.915Z,29.30
2018-10-19T02:07:09.802Z,29.00
2018-10-19T02:09:38.675Z,29.40
2018-10-19T02:12:07.959Z,29.30
2018-10-19T02:14:37.047Z,30.00
2018-10-19T02:17:06.403Z,30.10
2018-10-19T02:19:35.570Z,30.10
2018-10-19T02:22:04.542Z,29.90
2018-10-19T02:24:33.359Z,30.00
2018-10-19T02:27:02.262Z,30.10
2018-10-19T02:29:31.100Z,30.00
2018-10-19T02:33:03.161Z,30.10
2018-10-19T02:35:31.936Z,30.10
2018-10-19T02:38:00.880Z,30.00
2018-10-19T02:40:29.718Z,29.90
2018-10-19T02:42:58.536Z,29.90
2018-10-19T02:45:27.352Z,29.80
2018-10-19T02:47:56.203Z,29.70
2018-10-19T02:50:25.027Z,29.90
2018-10-19T02:52:53.914Z,30.30
2018-10-19T02:55:22.707Z,30.50
2018-10-19T02:57:51.526Z,31.20
2018-10-19T03:00:20.338Z,31.50
2018-10-19T03:02:49.174Z,32.10
2018-10-19T03:05:18.055Z,32.30
2018-10-19T03:07:46.823Z,32.80
2018-10-19T03:10:15.667Z,33.50
2018-10-19T03:12:44.531Z,33.90
2018-10-19T03:15:13.440Z,34.40
2018-10-19T03:17:42.210Z,35.00
2018-10-19T03:20:11.052Z,35.50
2018-10-19T03:22:39.888Z,35.60
2018-10-19T03:25:09.426Z,35.90
2018-10-19T03:27:38.521Z,36.00
2018-10-19T03:30:08.243Z,36.80
2018-10-19T03:32:37.089Z,36.90
2018-10-19T03:35:06.756Z,37.30
2018-10-19T03:37:35.583Z,37.50
2018-10-19T03:40:04.623Z,37.70
2018-10-19T03:42:33.467Z,38.30
2018-10-19T03:45:02.361Z,38.70
2018-10-19T03:47:31.151Z,38.80
2018-10-19T03:50:00.166Z,39.30
2018-10-19T03:52:29.030Z,39.00
2018-10-19T03:54:57.843Z,38.90
2018-10-19T03:57:26.707Z,39.30
2018-10-19T03:59:55.528Z,40.40
2018-10-19T04:02:24.878Z,39.30
2018-10-19T04:04:53.736Z,39.30
2018-10-19T04:07:22.554Z,39.30
2018-10-19T04:09:51.388Z,39.30
2018-10-19T04:12:20.274Z,39.30
2018-10-19T04:14:49.255Z,38.80
2018-10-19T04:17:18.234Z,39.30
2018-10-19T04:19:47.003Z,39.30
2018-10-19T04:22:15.966Z,39.30
2018-10-19T04:24:44.811Z,39.30
2018-10-19T04:27:13.700Z,39.30
2018-10-19T04:29:42.531Z,39.20
2018-10-19T04:32:11.381Z,39.20
2018-10-19T04:34:40.284Z,39.90
2018-10-19T04:37:09.158Z,40.20
2018-10-19T04:39:38.065Z,40.80
2018-10-19T04:42:06.987Z,41.40
2018-10-19T04:44:36.765Z,41.10
2018-10-19T04:47:06.119Z,41.60
2018-10-19T04:49:34.867Z,41.80
2018-10-19T04:52:03.727Z,41.50
2018-10-19T04:54:32.541Z,41.90
2018-10-19T04:57:01.435Z,42.70
2018-10-19T04:59:30.227Z,42.60
2018-10-19T05:01:59.091Z,42.50
2018-10-19T05:04:28.625Z,42.60
2018-10-19T05:06:57.459Z,42.40
2018-10-19T05:09:26.294Z,42.40
2018-10-19T05:11:55.127Z,42.60
2018-10-19T05:14:24.675Z,43.20
2018-10-19T05:16:53.481Z,42.90
2018-10-19T05:19:22.350Z,42.80
2018-10-19T05:21:51.175Z,42.00
2018-10-19T05:24:20.024Z,41.90
2018-10-19T05:26:49.538Z,41.60
2018-10-19T05:29:18.368Z,41.30
2018-10-19T05:31:47.219Z,41.20
2018-10-19T05:34:16.178Z,40.90
2018-10-19T05:36:45.103Z,40.50
2018-10-19T05:39:14.061Z,40.10
2018-10-19T05:41:42.911Z,41.00
2018-10-19T05:44:11.818Z,40.60
2018-10-19T05:46:40.990Z,40.20
2018-10-19T05:49:09.827Z,40.30
2018-10-19T05:51:38.845Z,39.90
2018-10-19T05:54:07.693Z,39.90
2018-10-19T05:56:37.714Z,39.40
2018-10-19T05:59:06.590Z,39.30
2018-10-19T06:01:35.402Z,39.30
2018-10-19T06:04:04.266Z,39.30
2018-10-19T06:06:33.121Z,39.40
2018-10-19T06:09:02.041Z,39.40
2018-10-19T06:11:30.861Z,39.50
2018-10-19T06:13:59.883Z,38.60
2018-10-19T06:16:28.719Z,39.40
2018-10-19T06:18:57.558Z,38.60
2018-10-19T06:21:26.414Z,38.20
2018-10-19T06:23:55.262Z,37.90
2018-10-19T06:26:24.185Z,37.50
2018-10-19T06:28:52.993Z,37.10
2018-10-19T06:31:21.803Z,36.70
2018-10-19T06:33:50.714Z,36.20
2018-10-19T06:36:19.490Z,35.80
2018-10-19T06:38:48.603Z,35.10
2018-10-19T06:41:17.527Z,34.80
2018-10-19T06:43:46.279Z,34.50
2018-10-19T06:46:15.127Z,34.10
2018-10-19T06:48:43.959Z,33.70
2018-10-19T06:51:12.923Z,33.60
2018-10-19T06:53:41.784Z,32.90
2018-10-19T06:56:10.839Z,32.90
2018-10-19T06:58:39.643Z,32.60
2018-10-19T07:01:08.467Z,32.40
2018-10-19T07:03:37.378Z,31.60
2018-10-19T07:06:06.725Z,31.30
2018-10-19T07:08:35.523Z,30.90
2018-10-19T07:11:05.765Z,29.80
2018-10-19T07:13:34.610Z,29.80
2018-10-19T07:16:03.472Z,29.90
2018-10-19T07:18:32.364Z,29.00
2018-10-19T07:21:01.280Z,28.60
2018-10-19T07:23:30.150Z,28.20
2018-10-19T07:25:59.076Z,27.70
2018-10-19T07:28:27.919Z,27.40
2018-10-19T07:30:56.811Z,27.00
2018-10-19T07:33:25.732Z,26.90
2018-10-19T07:35:54.594Z,26.50
2018-10-19T07:38:23.482Z,26.40
2018-10-19T07:40:52.394Z,26.00
2018-10-19T07:43:21.261Z,26.00
2018-10-19T07:45:50.167Z,25.40
2018-10-19T07:48:19.084Z,25.30
2018-10-19T07:50:48.003Z,24.90
2018-10-19T07:53:16.983Z,24.70
2018-10-19T07:55:45.903Z,24.30
2018-10-19T07:58:15.342Z,24.10
2018-10-19T08:00:44.228Z,23.80
2018-10-19T08:03:13.123Z,23.70
2018-10-19T08:05:42.588Z,24.40
2018-10-19T08:08:12.215Z,23.50
2018-10-19T08:10:41.208Z,23.00
2018-10-19T08:13:10.794Z,22.60
2018-10-19T08:15:39.687Z,21.80
2018-10-19T08:18:08.718Z,21.80
2018-10-19T08:20:37.587Z,23.30
2018-10-19T08:23:06.621Z,21.40
2018-10-19T08:25:35.601Z,21.20
2018-10-19T08:28:04.442Z,21.20
2018-10-19T08:30:33.372Z,20.10
2018-10-19T08:33:02.224Z,20.30
2018-10-19T08:35:31.114Z,20.30
2018-10-19T08:38:00.028Z,20.00
2018-10-19T08:40:28.918Z,19.20
2018-10-19T08:42:57.764Z,19.00
2018-10-19T08:45:26.651Z,18.80
2018-10-19T08:47:55.490Z,19.50
2018-10-19T08:50:24.324Z,18.40
2018-10-19T08:52:53.163Z,18.10
2018-10-19T08:55:21.999Z,18.00
2018-10-19T08:57:50.940Z,17.70
2018-10-19T09:00:19.803Z,17.50
2018-10-19T09:02:48.550Z,17.40
2018-10-19T09:05:17.451Z,17.30
2018-10-19T09:07:46.203Z,17.10
2018-10-19T09:10:15.071Z,16.90
2018-10-19T09:12:44.013Z,16.80
2018-10-19T09:15:12.897Z,16.50
2018-10-19T09:17:41.678Z,16.40
2018-10-19T09:20:10.531Z,16.50
2018-10-19T09:22:39.397Z,16.90
2018-10-19T09:25:08.759Z,16.70
2018-10-19T09:27:37.591Z,16.40
2018-10-19T09:30:07.549Z,16.00
2018-10-19T09:32:36.354Z,15.80
2018-10-19T09:35:05.234Z,15.60
2018-10-19T09:37:34.043Z,16.80
2018-10-19T09:40:02.888Z,16.20
2018-10-19T09:42:31.732Z,15.80
2018-10-19T09:45:00.649Z,15.70
2018-10-19T09:47:29.624Z,15.90
2018-10-19T09:49:58.397Z,15.30
2018-10-19T09:52:27.208Z,14.80
2018-10-19T09:54:56.064Z,14.60
2018-10-19T09:57:25.351Z,14.30
2018-10-19T09:59:54.183Z,13.80
2018-10-19T10:02:23.047Z,13.10
2018-10-19T10:04:51.911Z,12.70
2018-10-19T10:07:20.754Z,12.20
2018-10-19T10:09:49.631Z,12.10
2018-10-19T10:12:18.478Z,11.60
2018-10-19T10:14:47.382Z,12.00
2018-10-19T10:17:16.170Z,11.60
2018-10-19T10:19:45.071Z,11.50
2018-10-19T10:22:13.928Z,10.90
2018-10-19T10:24:42.794Z,10.40
2018-10-19T10:27:11.571Z,10.70
2018-10-19T10:29:40.403Z,10.80
2018-10-19T10:32:09.238Z,11.80
2018-10-19T10:34:38.099Z,10.80
2018-10-19T10:37:07.024Z,10.40
2018-10-19T10:39:35.862Z,9.90
2018-10-19T10:42:05.035Z,9.70
2018-10-19T10:44:33.860Z,9.30
2018-10-19T10:47:02.745Z,9.10
2018-10-19T10:49:31.506Z,7.40
2018-10-19T10:52:00.334Z,7.60
2018-10-19T10:54:29.170Z,6.60
2018-10-19T10:56:57.992Z,6.70
2018-10-19T10:59:26.817Z,6.80
2018-10-19T11:01:55.645Z,6.50
2018-10-19T11:04:24.479Z,5.70
2018-10-19T11:06:53.298Z,5.30
2018-10-19T11:09:22.166Z,4.50
2018-10-19T11:11:51.002Z,4.00
2018-10-19T11:14:19.818Z,3.40
2018-10-19T11:16:48.661Z,1.60
2018-10-19T11:19:17.502Z,2.00
2018-10-19T11:21:46.702Z,1.50
2018-10-19T11:24:15.516Z,1.60
2018-10-19T11:26:44.370Z,2.00
2018-10-19T11:29:13.201Z,1.10
2018-10-19T11:31:42.014Z,1.00
2018-10-19T11:34:10.949Z,1.00
2018-10-19T11:36:39.726Z,1.00
2018-10-19T11:39:09.674Z,1.00
2018-10-19T11:41:38.839Z,1.20
2018-10-19T11:44:07.989Z,1.00
2018-10-19T11:46:36.932Z,1.00
2018-10-19T11:49:05.898Z,1.00
2018-10-19T11:51:34.719Z,1.00
2018-10-19T11:54:03.642Z,1.00
2018-10-19T11:56:32.590Z,1.00
2018-10-19T11:59:01.488Z,1.00
2018-10-19T12:01:30.437Z,1.00
2018-10-19T12:03:59.293Z,1.00
2018-10-19T12:06:28.271Z,1.00
2018-10-19T12:08:57.174Z,1.00
2018-10-19T12:11:26.095Z,1.00
2018-10-19T12:13:54.934Z,1.00
2018-10-19T12:16:23.881Z,1.00
2018-10-19T12:18:52.720Z,1.00
2018-10-19T12:21:21.722Z,1.00
2018-10-19T12:23:50.576Z,1.00
2018-10-19T12:26:20.113Z,1.00
2018-10-19T12:28:48.998Z,1.00
2018-10-19T12:31:18.027Z,1.00
2018-10-19T12:33:46.818Z,1.00
2018-10-19T12:36:15.658Z,1.00
2018-10-19T12:38:44.566Z,1.00
2018-10-19T12:41:13.618Z,1.00
2018-10-19T12:43:42.514Z,1.00
2018-10-19T12:46:34.846Z,1.00
2018-10-19T12:49:03.814Z,1.00
2018-10-19T12:51:32.734Z,1.00
2018-10-19T12:54:01.749Z,1.00
2018-10-19T12:56:30.550Z,1.00
2018-10-19T12:58:59.382Z,1.00
2018-10-19T13:01:29.142Z,1.00
2018-10-19T13:03:58.519Z,1.00
2018-10-19T13:06:27.346Z,1.00
2018-10-19T13:08:56.184Z,1.00
2018-10-19T13:11:25.307Z,1.00
2018-10-19T13:13:54.294Z,1.00
2018-10-19T13:16:23.367Z,1.00
2018-10-19T13:18:52.499Z,1.00
2018-10-19T13:21:21.570Z,1.00
2018-10-19T13:23:50.394Z,1.00
2018-10-19T13:26:19.375Z,1.00
2018-10-19T13:28:48.266Z,1.00
2018-10-19T13:31:17.077Z,1.00
2018-10-19T13:33:45.914Z,1.00
2018-10-19T13:36:14.871Z,1.00
2018-10-19T13:38:43.727Z,1.00
2018-10-19T13:41:12.541Z,1.00
2018-10-19T13:43:42.098Z,1.00
2018-10-19T13:46:10.971Z,1.00
2018-10-19T13:48:39.813Z,1.00
2018-10-19T13:51:08.645Z,1.00
2018-10-19T13:53:37.454Z,1.00
2018-10-19T13:56:06.274Z,1.00
2018-10-19T13:58:35.152Z,1.00
2018-10-19T14:01:04.143Z,1.00
2018-10-19T14:03:32.991Z,1.00
2018-10-19T14:06:02.694Z,1.00
2018-10-19T14:08:31.537Z,1.00
2018-10-19T14:11:00.393Z,1.00
2018-10-19T14:13:29.288Z,1.00
2018-10-19T14:15:58.134Z,1.00
2018-10-19T14:18:27.002Z,1.00
2018-10-19T14:20:55.816Z,1.00
2018-10-19T14:23:25.670Z,1.00
2018-10-19T14:25:54.532Z,1.00
2018-10-19T14:28:23.375Z,1.00
2018-10-19T14:30:52.260Z,1.00
2018-10-19T14:33:21.231Z,1.00
2018-10-19T14:35:49.923Z,1.00
2018-10-19T14:38:18.847Z,1.00
2018-10-19T14:40:47.656Z,1.00
2018-10-19T14:43:16.619Z,1.00
2018-10-19T14:45:45.432Z,1.00
2018-10-19T14:48:14.294Z,1.00
2018-10-19T14:50:43.158Z,1.00
2018-10-19T14:53:12.149Z,1.00
2018-10-19T14:55:41.018Z,1.00
2018-10-19T14:58:09.854Z,1.00
2018-10-19T15:00:38.677Z,1.00
2018-10-19T15:03:07.593Z,1.00
2018-10-19T15:05:36.438Z,1.00
2018-10-19T15:08:05.430Z,1.00
2018-10-19T15:10:34.483Z,1.00
2018-10-19T15:13:03.116Z,1.00
2018-10-19T15:15:32.034Z,1.00
2018-10-19T15:18:00.991Z,1.00
2018-10-19T15:20:29.791Z,1.00
2018-10-19T15:22:58.619Z,1.00
2018-10-19T15:25:27.523Z,1.00
2018-10-19T15:27:56.435Z,1.00
2018-10-19T15:30:25.307Z,1.00
2018-10-19T15:32:54.266Z,1.00
2018-10-19T15:35:23.083Z,1.00
2018-10-19T15:40:20.765Z,1.00
2018-10-19T15:42:49.646Z,1.00
2018-10-19T15:45:18.610Z,1.00
2018-10-19T15:47:47.527Z,1.00
2018-10-19T15:50:16.427Z,1.00
2018-10-19T15:52:45.374Z,1.00
2018-10-19T15:55:14.298Z,1.00
2018-10-19T15:57:43.202Z,1.00
2018-10-19T16:00:12.112Z,1.00
2018-10-19T16:02:41.038Z,1.00
2018-10-19T16:05:09.955Z,1.90
2018-10-19T16:07:39.018Z,3.70
2018-10-19T16:10:08.838Z,3.80
2018-10-19T16:12:37.751Z,5.30
2018-10-19T16:15:09.412Z,5.40
2018-10-19T16:17:38.370Z,6.60
2018-10-19T16:20:09.078Z,7.50
2018-10-19T16:22:38.271Z,7.80
2018-10-19T16:25:07.905Z,8.40
2018-10-19T16:27:37.906Z,9.30
2018-10-19T16:30:08.420Z,9.80
2018-10-19T16:32:37.606Z,10.70
2018-10-19T16:35:06.521Z,10.60
2018-10-19T16:37:35.612Z,11.80
2018-10-19T16:40:04.686Z,12.30
2018-10-19T16:42:33.594Z,12.80
2018-10-19T16:47:31.588Z,13.60
2018-10-19T16:50:00.560Z,14.90
2018-10-19T16:52:29.507Z,15.10
2018-10-19T16:54:58.446Z,15.70
2018-10-19T16:57:27.475Z,16.40
2018-10-19T16:59:56.473Z,16.40
2018-10-19T17:02:25.439Z,16.70
2018-10-19T17:04:54.571Z,16.90
2018-10-19T17:07:23.440Z,17.90
2018-10-19T17:09:52.387Z,18.10
2018-10-19T17:12:21.330Z,18.40
2018-10-19T17:14:50.312Z,18.40
2018-10-19T17:17:19.579Z,18.40
2018-10-19T17:19:48.520Z,18.70
2018-10-19T17:22:17.460Z,18.90
2018-10-19T17:24:46.356Z,19.30
2018-10-19T17:27:15.327Z,19.60
2018-10-19T17:29:44.217Z,19.50
2018-10-19T17:32:13.128Z,20.00
2018-10-19T17:34:42.043Z,20.20
2018-10-19T17:37:11.060Z,20.60
2018-10-19T17:39:39.896Z,20.70
2018-10-19T17:42:08.794Z,21.10
2018-10-19T17:44:37.702Z,21.00
2018-10-19T17:47:06.670Z,21.30
2018-10-19T17:49:35.995Z,21.30
2018-10-19T17:52:05.115Z,21.30
2018-10-19T17:54:34.062Z,21.50
2018-10-19T17:57:03.006Z,21.50
2018-10-19T17:59:31.930Z,21.50
2018-10-19T18:02:01.735Z,22.10
2018-10-19T18:04:31.570Z,22.20
2018-10-19T18:07:00.488Z,22.60
2018-10-19T18:09:29.385Z,22.70
2018-10-19T18:11:58.187Z,22.90
2018-10-19T18:14:27.658Z,22.90
2018-10-19T18:16:56.603Z,23.10
2018-10-19T18:19:25.464Z,23.40
2018-10-19T18:21:54.787Z,23.60
2018-10-19T18:24:23.558Z,23.80
2018-10-19T18:26:52.425Z,24.20
2018-10-19T18:29:21.275Z,24.40
2018-10-19T18:31:50.225Z,24.60
2018-10-19T18:34:19.143Z,24.80
2018-10-19T18:36:48.088Z,24.80
2018-10-19T18:39:17.054Z,25.20
2018-10-19T18:41:45.988Z,25.30
2018-10-19T18:44:15.012Z,25.80
2018-10-19T18:46:43.870Z,26.20
2018-10-19T18:49:12.714Z,27.10
2018-10-19T18:51:41.585Z,27.10
2018-10-19T18:54:10.491Z,28.70
2018-10-19T18:56:39.342Z,27.60
2018-10-19T18:59:08.404Z,27.60
2018-10-19T19:01:37.172Z,27.50
2018-10-19T19:04:06.598Z,27.50
2018-10-19T19:06:35.483Z,27.60
2018-10-19T19:09:06.887Z,27.60
2018-10-19T19:11:35.715Z,29.70
2018-10-19T19:14:04.678Z,30.20
2018-10-19T19:16:33.479Z,30.30
2018-10-19T19:20:11.790Z,30.30
2018-10-19T19:22:40.898Z,30.30
2018-10-19T19:25:15.116Z,30.40
2018-10-19T19:27:44.031Z,30.60
2018-10-19T19:30:12.937Z,31.10
2018-10-19T19:32:47.026Z,31.10
2018-10-19T19:35:16.009Z,31.20
2018-10-19T19:37:44.762Z,31.30
2018-10-19T19:40:13.597Z,31.30
2018-10-19T19:42:46.026Z,31.50
2018-10-19T19:45:15.105Z,31.40
2018-10-19T19:47:49.378Z,31.40
2018-10-19T19:50:18.188Z,31.40
2018-10-19T19:52:47.002Z,31.60
2018-10-19T19:55:15.847Z,31.90
2018-10-19T19:57:44.710Z,32.00
2018-10-19T20:00:13.523Z,32.20
2018-10-19T20:02:42.501Z,32.20
2018-10-19T20:05:11.350Z,32.20
2018-10-19T20:07:40.196Z,32.20
2018-10-19T20:10:09.035Z,32.20
2018-10-19T20:12:37.919Z,32.50
2018-10-19T20:15:08.223Z,32.60
2018-10-19T20:17:37.166Z,32.70
2018-10-19T20:20:08.447Z,32.70
2018-10-19T20:22:37.507Z,32.80
2018-10-19T20:25:07.619Z,33.00
2018-10-19T20:27:37.027Z,33.00
2018-10-19T20:30:08.275Z,33.10
2018-10-19T20:32:37.672Z,33.20
2018-10-19T20:35:06.531Z,33.40
2018-10-19T20:37:35.302Z,33.50
2018-10-19T20:40:04.444Z,33.60
2018-10-19T20:42:33.315Z,33.70
2018-10-19T20:45:02.179Z,34.10
2018-10-19T20:47:31.022Z,34.40
2018-10-19T20:49:59.970Z,35.00
2018-10-19T20:52:28.732Z,35.40
2018-10-19T20:54:57.584Z,35.70
2018-10-19T20:57:26.413Z,36.00
2018-10-19T20:59:55.259Z,36.20
2018-10-19T21:02:24.095Z,36.50
2018-10-19T21:04:52.980Z,36.50
2018-10-19T21:07:21.859Z,36.10
2018-10-19T21:09:50.660Z,36.00
2018-10-19T21:12:19.539Z,36.00
2018-10-19T21:14:48.369Z,35.90
2018-10-19T21:17:17.460Z,35.80
2018-10-19T21:19:46.314Z,36.10
2018-10-19T21:22:15.132Z,36.00
2018-10-19T21:24:43.994Z,36.10
2018-10-19T21:27:12.834Z,36.60
2018-10-19T21:29:41.672Z,36.80
2018-10-19T21:32:10.587Z,37.90
2018-10-19T21:34:39.418Z,36.90
2018-10-19T21:37:08.242Z,37.20
2018-10-19T21:39:37.094Z,37.40
2018-10-19T21:42:05.995Z,37.60
2018-10-19T21:44:34.815Z,37.60
2018-10-19T21:47:03.710Z,38.30
2018-10-19T21:49:32.539Z,38.30
2018-10-19T21:52:01.354Z,38.70
2018-10-19T21:54:30.207Z,38.60
2018-10-19T21:56:59.061Z,38.60
2018-10-19T21:59:27.920Z,38.70
2018-10-19T22:01:56.803Z,38.60
2018-10-19T22:04:25.754Z,38.60
2018-10-19T22:06:54.594Z,38.60
2018-10-19T22:09:23.422Z,41.00
2018-10-19T22:11:52.242Z,40.20
2018-10-19T22:14:21.135Z,41.30
2018-10-19T22:16:49.951Z,41.30
2018-10-19T22:19:18.799Z,41.30
2018-10-19T22:21:47.627Z,41.40
2018-10-19T22:24:16.451Z,41.50
2018-10-19T22:26:45.306Z,41.40
2018-10-19T22:29:14.191Z,41.50
2018-10-19T22:31:42.975Z,41.50
2018-10-19T22:34:11.810Z,41.20
2018-10-19T22:36:40.642Z,41.20
2018-10-19T22:39:09.454Z,40.90
2018-10-19T22:41:38.362Z,40.70
2018-10-19T22:44:07.168Z,40.60
2018-10-19T22:46:36.018Z,40.40
2018-10-19T22:49:05.303Z,40.80
2018-10-19T22:51:34.130Z,42.20
2018-10-19T22:54:03.030Z,43.40
2018-10-19T22:56:31.884Z,44.00
2018-10-19T22:59:00.752Z,44.80
2018-10-19T23:01:29.538Z,46.00
2018-10-19T23:03:58.394Z,45.60
2018-10-19T23:06:27.279Z,45.10
2018-10-19T23:08:56.114Z,44.70
2018-10-19T23:11:24.947Z,44.00
2018-10-19T23:13:53.807Z,45.40
2018-10-19T23:16:22.707Z,45.80
2018-10-19T23:19:01.536Z,46.00
2018-10-19T23:21:30.418Z,45.90
2018-10-19T23:23:59.157Z,45.70
2018-10-19T23:26:28.019Z,46.50
2018-10-19T23:28:56.915Z,45.90
2018-10-19T23:31:25.817Z,45.90
2018-10-19T23:33:54.590Z,45.90
2018-10-19T23:36:23.430Z,46.10
2018-10-19T23:38:52.241Z,46.30
2018-10-19T23:41:21.079Z,46.30
2018-10-19T23:43:49.926Z,46.00
2018-10-19T23:46:18.750Z,45.80
2018-10-19T23:48:47.577Z,45.40
2018-10-19T23:51:16.437Z,44.70
2018-10-19T23:53:45.263Z,44.40
2018-10-19T23:56:14.091Z,44.20
2018-10-19T23:58:42.955Z,44.30
